Amistad, New Mexico
Current Conditions -  °F | °C
As of 9:53 PM on Sunday 21 Dec 2014 (Local Time) from KDHT Reporting Station
Clear Clear  
Wind Chill: 36°   Ceiling: Unl
Heat Index: 42°   Visibility: 10mi
Dew Point: 26°   Wind: 12mph
Humidity: 53%   Direction: 270°W
Pressure: 29.61"   Gusts: NA
Location:  35.92°N, 103.16°W
Report Text: KDHT 220453Z AUTO 27010KT 10SM CLR 06/M03 A2961 RMK AO2 SLP008 T00561033
Loading
Personal Weather Stations






























Interactive Weather Map New forecast layout! Learn more

10-Day Weather Forecast

Advertisements
Track Severe Weather on mobile